Lovundjenta — LK7468 — position and weather

sailwx.info

Track history (hours):
 
Tides and Currents Weather Stations Pressure Air Temp Water Temp Dewpoint Dewpoint Depression Visibility Wind Speed Wind Dir Waves Ship Positions

Lovundjenta

Last reported at 2017-Jun-26 08:22 UTC. Time now 2017-Jul-28 10:49 UTC.
Position N 66°05' E 012°36'.
Warning: this ship's position is 32 days out of date.

Length 15 m.

MMSI: 257788900.

Date/timePositionNaut miles runAvg speedWind from/ knotsBaromVisibWave heightAir tempDewpointWater temp
2017-Jun-26 08:22N 66°05' E 012°36'0 0.0
2017-Jun-26 07:58N 66°05' E 012°36'0 0.0
2017-Jun-26 07:25N 66°05' E 012°36'0 0.0
2017-Jun-26 06:58N 66°05' E 012°36'0 0.0
2017-Jun-26 06:28N 66°05' E 012°36'0 0.0
2017-Jun-26 05:58N 66°05' E 012°36'0 0.0
2017-Jun-26 05:28N 66°05' E 012°36'3 7.5
2017-Jun-26 05:00N 66°02' E 012°38'0 0.2
2017-Jun-26 04:15N 66°02' E 012°38'413.2
2017-Jun-26 03:59N 66°05' E 012°35'3 4.4
2017-Jun-26 03:14N 66°02' E 012°38'313.2
2017-Jun-26 02:59N 66°05' E 012°35'4 0.1
2017-Jun-24 22:46N 66°01' E 012°38'0 0.0
2017-Jun-23 22:21N 66°01' E 012°38'822.9
2017-Jun-23 21:59N 66°08' E 012°51'6 5.4
2017-Jun-23 20:58N 66°12' E 013°00'1122.5
2017-Jun-23 20:29N 66°05' E 012°41'3 0.3
2017-Jun-23 10:22N 66°01' E 012°38'822.6
2017-Jun-23 10:00N 66°09' E 012°48'1223.5
2017-Jun-23 09:29N 66°20' E 012°58'713.6
2017-Jun-23 08:59N 66°23' E 012°43'917.7
2017-Jun-23 08:30N 66°22' E 012°21'0 0.8
2017-Jun-23 07:58N 66°22' E 012°22'0 0.0
2017-Jun-23 07:28N 66°22' E 012°22'0 0.0
2017-Jun-23 06:58N 66°22' E 012°22'0 0.0
2017-Jun-23 06:28N 66°22' E 012°22'0 0.0
2017-Jun-23 05:58N 66°22' E 012°22'0 0.0
2017-Jun-23 05:28N 66°22' E 012°22'0 0.0
2017-Jun-23 04:58N 66°22' E 012°22'0 0.0
2017-Jun-23 04:28N 66°22' E 012°22'0 0.0
2017-Jun-23 03:58N 66°22' E 012°22'0 0.0
2017-Jun-23 03:28N 66°22' E 012°22'0 0.0
2017-Jun-23 02:58N 66°22' E 012°22'0 0.0
2017-Jun-23 02:28N 66°22' E 012°22'0 0.0
2017-Jun-23 01:55N 66°22' E 012°22'0 0.0
2017-Jun-23 01:25N 66°22' E 012°22'0 0.0
2017-Jun-23 00:58N 66°22' E 012°22'0 0.0
2017-Jun-23 00:28N 66°22' E 012°22'0 0.0
2017-Jun-22 23:58N 66°22' E 012°22'0 0.0
2017-Jun-22 23:28N 66°22' E 012°22'0 0.0
2017-Jun-22 22:58N 66°22' E 012°22'0 0.0
2017-Jun-22 22:28N 66°22' E 012°22'0 0.0
2017-Jun-22 21:58N 66°22' E 012°22'0 0.0
2017-Jun-22 21:28N 66°22' E 012°22'0 0.0
2017-Jun-22 20:58N 66°22' E 012°22'0 0.0
2017-Jun-22 20:28N 66°22' E 012°22'0 0.0
2017-Jun-22 19:58N 66°22' E 012°22'0 0.0
2017-Jun-22 19:28N 66°22' E 012°22'0 0.0
2017-Jun-22 18:58N 66°22' E 012°22'0 0.0
2017-Jun-22 18:28N 66°22' E 012°22'0 0.0
2017-Jun-22 17:55N 66°22' E 012°22'0 0.0
2017-Jun-22 17:28N 66°22' E 012°22'0 0.0
2017-Jun-22 16:58N 66°22' E 012°22'0 0.0
2017-Jun-22 16:28N 66°22' E 012°22'0 0.0
2017-Jun-22 15:55N 66°22' E 012°22'0 0.0
2017-Jun-22 15:28N 66°22' E 012°22'0 0.0
2017-Jun-22 14:58N 66°22' E 012°22'0 0.0
2017-Jun-22 14:28N 66°22' E 012°22'0 0.0
2017-Jun-22 13:25N 66°22' E 012°22'0 0.0
2017-Jun-22 12:58N 66°22' E 012°22'0 0.0
2017-Jun-22 12:28N 66°22' E 012°22'0 0.0
2017-Jun-22 11:58N 66°22' E 012°22'0 0.0
2017-Jun-22 11:28N 66°22' E 012°22'0 0.0
2017-Jun-22 10:58N 66°22' E 012°22'0 0.0
2017-Jun-22 10:28N 66°22' E 012°22'0 0.0
2017-Jun-22 09:58N 66°22' E 012°22'0 0.0
2017-Jun-22 09:28N 66°22' E 012°22'0 0.0
2017-Jun-22 08:58N 66°22' E 012°22'0 0.0
2017-Jun-22 08:25N 66°22' E 012°22'0 0.0
2017-Jun-22 07:58N 66°22' E 012°22'0 0.0
2017-Jun-22 07:28N 66°22' E 012°22'0 0.0
2017-Jun-22 06:58N 66°22' E 012°22'0 0.0
2017-Jun-22 06:28N 66°22' E 012°22'0 0.0
2017-Jun-22 05:58N 66°22' E 012°22'0 0.0
2017-Jun-22 05:28N 66°22' E 012°22'0 0.0
2017-Jun-22 04:58N 66°22' E 012°22'0 0.0
2017-Jun-22 04:28N 66°22' E 012°22'0 0.0
2017-Jun-22 03:58N 66°22' E 012°22'0 0.0
2017-Jun-22 03:28N 66°22' E 012°22'0 0.0
2017-Jun-22 02:58N 66°22' E 012°22'0 0.0
2017-Jun-22 02:28N 66°22' E 012°22'0 0.0
2017-Jun-22 01:58N 66°22' E 012°22'0 0.0
2017-Jun-22 01:28N 66°22' E 012°22'0 0.0
2017-Jun-22 00:58N 66°22' E 012°22'0 0.0
2017-Jun-22 00:28N 66°22' E 012°22'0 0.0
2017-Jun-21 23:58N 66°22' E 012°22'0 0.0
2017-Jun-21 23:28N 66°22' E 012°22'0 0.0
2017-Jun-21 22:58N 66°22' E 012°22'0 0.0
2017-Jun-21 22:28N 66°22' E 012°22'0 0.0
2017-Jun-21 21:58N 66°22' E 012°22'0 0.0
2017-Jun-21 21:28N 66°22' E 012°22'0 0.0
2017-Jun-21 20:58N 66°22' E 012°22'0 0.0
2017-Jun-21 20:28N 66°22' E 012°22'0 0.0
2017-Jun-21 19:58N 66°22' E 012°22'0 0.0
2017-Jun-21 19:29N 66°22' E 012°22'1020.1
2017-Jun-21 18:59N 66°14' E 012°36'7 0.7
2017-Jun-21 08:57N 66°07' E 012°40'1423.2
2017-Jun-21 08:22N 66°19' E 012°26'3 8.6
2017-Jun-21 07:58N 66°22' E 012°22'0 0.0
2017-Jun-21 07:28N 66°22' E 012°22'0 0.0
2017-Jun-21 06:46N 66°22' E 012°22'0 0.0
2017-Jun-21 06:16N 66°22' E 012°22'0 0.0
2017-Jun-21 03:10N 66°22' E 012°22'0 0.0
2017-Jun-21 02:52N 66°22' E 012°22'0 0.0
2017-Jun-21 02:28N 66°22' E 012°22'0 0.0
2017-Jun-21 01:22N 66°22' E 012°22'0 0.0
2017-Jun-21 00:58N 66°22' E 012°22'0 0.0
2017-Jun-21 00:22N 66°22' E 012°22'0 0.0
2017-Jun-20 20:52N 66°22' E 012°22'0 0.0
2017-Jun-20 20:16N 66°22' E 012°22'0 0.0
2017-Jun-20 19:28N 66°22' E 012°22'0 0.0
2017-Jun-20 18:52N 66°22' E 012°22'0 0.0
2017-Jun-20 18:22N 66°22' E 012°22'0 0.0
2017-Jun-20 17:34N 66°22' E 012°22'0 0.0
2017-Jun-20 17:16N 66°22' E 012°22'0 0.0
2017-Jun-20 15:58N 66°22' E 012°22'0 0.0
2017-Jun-20 14:46N 66°22' E 012°22'0 0.0
2017-Jun-20 13:46N 66°22' E 012°22'0 0.0
2017-Jun-20 13:18N 66°22' E 012°22'1712.0
2017-Jun-20 11:52N 66°09' E 012°48'1615.1
2017-Jun-20 10:50N 66°22' E 012°27'2 3.4
2017-Jun-20 10:18N 66°22' E 012°23'1 1.9
2017-Jun-20 09:59N 66°22' E 012°22'0 0.0
2017-Jun-20 09:11N 66°22' E 012°22'0 0.0
2017-Jun-20 08:59N 66°22' E 012°22'0 0.0
2017-Jun-20 08:29N 66°22' E 012°22'0 0.0
2017-Jun-20 07:41N 66°22' E 012°22'0 0.0
2017-Jun-20 07:26N 66°22' E 012°22'0 0.0
2017-Jun-20 06:58N 66°22' E 012°22'0 0.0
2017-Jun-20 06:29N 66°22' E 012°22'0 0.0
2017-Jun-20 05:59N 66°22' E 012°22'0 0.0
2017-Jun-20 05:17N 66°22' E 012°22'0 0.0
2017-Jun-20 04:59N 66°22' E 012°22'0 0.0
2017-Jun-20 04:29N 66°22' E 012°22'0 0.0
2017-Jun-20 03:59N 66°22' E 012°22'0 0.0
2017-Jun-20 03:17N 66°22' E 012°22'0 0.0
2017-Jun-20 02:58N 66°22' E 012°22'0 0.0
2017-Jun-20 02:29N 66°22' E 012°22'0 0.0
2017-Jun-20 01:47N 66°22' E 012°22'0 0.0
2017-Jun-20 01:29N 66°22' E 012°22'0 0.0
2017-Jun-20 00:59N 66°22' E 012°22'0 0.0
2017-Jun-20 00:23N 66°22' E 012°22'0 0.0
2017-Jun-19 23:53N 66°22' E 012°22'0 0.0
2017-Jun-19 23:29N 66°22' E 012°22'0 0.0
2017-Jun-19 22:47N 66°22' E 012°22'0 0.0
2017-Jun-19 22:05N 66°22' E 012°22'0 0.0
2017-Jun-19 21:46N 66°22' E 012°22'0 0.0
2017-Jun-19 21:29N 66°22' E 012°22'0 0.0
2017-Jun-19 20:53N 66°22' E 012°22'0 0.0
2017-Jun-19 20:23N 66°22' E 012°22'0 0.0
2017-Jun-19 19:59N 66°22' E 012°22'0 0.0
2017-Jun-19 18:47N 66°22' E 012°22'0 0.0
2017-Jun-19 18:29N 66°22' E 012°22'0 0.0
2017-Jun-19 17:47N 66°22' E 012°22'0 0.0
2017-Jun-19 17:11N 66°22' E 012°22'0 0.0
2017-Jun-19 16:59N 66°22' E 012°22'0 0.0
2017-Jun-19 16:29N 66°22' E 012°22'0 0.0
2017-Jun-19 15:52N 66°22' E 012°22'0 0.0
2017-Jun-19 15:23N 66°22' E 012°22'0 0.0
2017-Jun-19 14:41N 66°22' E 012°22'0 0.0
2017-Jun-19 14:22N 66°22' E 012°22'0 0.0
2017-Jun-19 13:29N 66°22' E 012°22'0 0.0
2017-Jun-19 12:50N 66°22' E 012°22'0 0.0
2017-Jun-19 12:29N 66°22' E 012°22'0 0.0
2017-Jun-19 11:59N 66°22' E 012°22'0 0.0
2017-Jun-19 11:29N 66°22' E 012°22'1 1.4
2017-Jun-19 11:01N 66°22' E 012°23'1120.8
2017-Jun-19 10:30N 66°24' E 012°49'510.0
2017-Jun-19 10:00N 66°21' E 012°60'918.1
2017-Jun-19 09:30N 66°23' E 012°38'712.7
2017-Jun-19 08:58N 66°22' E 012°22'0 0.0
2017-Jun-19 08:28N 66°22' E 012°22'0 0.0
2017-Jun-19 07:58N 66°22' E 012°22'0 0.0
2017-Jun-19 07:28N 66°22' E 012°22'0 0.0
2017-Jun-19 06:58N 66°22' E 012°22'0 0.0
2017-Jun-19 06:28N 66°22' E 012°22'0 0.0
2017-Jun-19 05:58N 66°22' E 012°22'0 0.0
2017-Jun-19 05:28N 66°22' E 012°22'0 0.0
2017-Jun-19 04:58N 66°22' E 012°22'0 0.0
2017-Jun-19 04:28N 66°22' E 012°22'0 0.0
2017-Jun-19 03:58N 66°22' E 012°22'0 0.0
2017-Jun-19 03:28N 66°22' E 012°22'0 0.0
2017-Jun-19 02:58N 66°22' E 012°22'0 0.0
2017-Jun-19 02:28N 66°22' E 012°22'0 0.0
2017-Jun-19 01:58N 66°22' E 012°22'0 0.0
2017-Jun-19 01:28N 66°22' E 012°22'0 0.0
2017-Jun-19 00:58N 66°22' E 012°22'0 0.0
2017-Jun-19 00:28N 66°22' E 012°22'0 0.0
2017-Jun-18 23:58N 66°22' E 012°22'0 0.0
2017-Jun-18 23:28N 66°22' E 012°22'0 0.0
2017-Jun-18 22:58N 66°22' E 012°22'0 0.0
2017-Jun-18 22:28N 66°22' E 012°22'0 0.0
2017-Jun-18 21:58N 66°22' E 012°22'0 0.0
2017-Jun-18 21:28N 66°22' E 012°22'0 0.0
2017-Jun-18 20:58N 66°22' E 012°22'0 0.0
2017-Jun-18 20:28N 66°22' E 012°22'0 0.0
2017-Jun-18 19:58N 66°22' E 012°22'0 0.0
2017-Jun-18 19:28N 66°22' E 012°22'0 0.0
2017-Jun-18 18:58N 66°22' E 012°22'0 0.0
2017-Jun-18 18:28N 66°22' E 012°22'0 0.0
2017-Jun-18 17:58N 66°22' E 012°22'0 0.0
2017-Jun-18 17:25N 66°22' E 012°22'0 0.0
2017-Jun-18 16:58N 66°22' E 012°22'0 0.0
2017-Jun-18 16:28N 66°22' E 012°22'0 0.0
2017-Jun-18 15:58N 66°22' E 012°22'0 0.0
2017-Jun-18 15:25N 66°22' E 012°22'0 0.0
2017-Jun-18 14:58N 66°22' E 012°22'0 0.0
2017-Jun-18 13:58N 66°22' E 012°22'0 0.0
2017-Jun-18 13:28N 66°22' E 012°22'0 0.0
2017-Jun-18 12:58N 66°22' E 012°22'0 0.0
2017-Jun-18 12:28N 66°22' E 012°22'0 0.0
2017-Jun-18 11:58N 66°22' E 012°22'0 0.0
2017-Jun-18 11:28N 66°22' E 012°22'0 0.0
2017-Jun-18 10:58N 66°22' E 012°22'0 0.0
2017-Jun-18 10:28N 66°22' E 012°22'0 0.0
2017-Jun-18 09:58N 66°22' E 012°22'0 0.0
2017-Jun-18 09:28N 66°22' E 012°22'0 0.0
2017-Jun-18 08:58N 66°22' E 012°22'0 0.0
2017-Jun-18 08:28N 66°22' E 012°22'0 0.0
2017-Jun-18 07:58N 66°22' E 012°22'0 0.0
2017-Jun-18 07:28N 66°22' E 012°22'0 0.0
2017-Jun-18 06:58N 66°22' E 012°22'0 0.0
2017-Jun-18 06:28N 66°22' E 012°22'0 0.0
2017-Jun-18 05:58N 66°22' E 012°22'0 0.0
2017-Jun-18 05:28N 66°22' E 012°22'0 0.0
2017-Jun-18 04:58N 66°22' E 012°22'0 0.0
2017-Jun-18 04:28N 66°22' E 012°22'0 0.0
2017-Jun-18 03:58N 66°22' E 012°22'0 0.0
2017-Jun-18 03:28N 66°22' E 012°22'0 0.0
2017-Jun-18 02:58N 66°22' E 012°22'0 0.0
2017-Jun-18 02:28N 66°22' E 012°22'0 0.0
2017-Jun-18 01:58N 66°22' E 012°22'0 0.0
2017-Jun-18 01:28N 66°22' E 012°22'0 0.0
2017-Jun-18 00:58N 66°22' E 012°22'0 0.0
2017-Jun-18 00:28N 66°22' E 012°22'0 0.0
2017-Jun-17 23:58N 66°22' E 012°22'0 0.0
2017-Jun-17 23:28N 66°22' E 012°22'0 0.0
2017-Jun-17 22:58N 66°22' E 012°22'0 0.0
2017-Jun-17 22:25N 66°22' E 012°22'0 0.0
2017-Jun-17 21:58N 66°22' E 012°22'0 0.0
2017-Jun-17 21:28N 66°22' E 012°22'0 0.0
2017-Jun-17 20:58N 66°22' E 012°22'0 0.0
2017-Jun-17 20:28N 66°22' E 012°22'0 0.0
2017-Jun-17 19:58N 66°22' E 012°22'0 0.0
2017-Jun-17 19:28N 66°22' E 012°22'0 0.0
2017-Jun-17 18:58N 66°22' E 012°22'0 0.0
2017-Jun-17 18:28N 66°22' E 012°22'0 0.0
2017-Jun-17 17:55N 66°22' E 012°22'0 0.0
2017-Jun-17 17:28N 66°22' E 012°22'0 0.0
2017-Jun-17 16:58N 66°22' E 012°22'0 0.0
2017-Jun-17 16:28N 66°22' E 012°22'0 0.0
2017-Jun-17 15:58N 66°22' E 012°22'0 0.0
2017-Jun-17 15:28N 66°22' E 012°22'0 0.0
2017-Jun-17 14:58N 66°22' E 012°22'0 0.0
2017-Jun-17 13:58N 66°22' E 012°22'0 0.0
2017-Jun-17 13:28N 66°22' E 012°22'0 0.0
2017-Jun-17 12:58N 66°22' E 012°22'0 0.0
2017-Jun-17 12:28N 66°22' E 012°22'0 0.0
2017-Jun-17 11:58N 66°22' E 012°22'0 0.0
2017-Jun-17 11:28N 66°22' E 012°22'918.0
2017-Jun-17 10:59N 66°15' E 012°33'1225.4
2017-Jun-17 10:30N 66°03' E 012°39'613.0
2017-Jun-17 10:00N 66°01' E 012°24'6 1.0
2017-Jun-17 04:00N 66°01' E 012°38'0 0.0
2017-Jun-17 00:30N 66°01' E 012°38'0 0.0
2017-Jun-16 19:18N 66°01' E 012°38'1 4.5
2017-Jun-16 19:00N 66°01' E 012°35'1224.0
2017-Jun-16 18:30N 65°50' E 012°21'1324.6
2017-Jun-16 17:59N 65°38' E 012°14'919.1
2017-Jun-16 17:31N 65°29' E 012°13'712.9
2017-Jun-16 17:00N 65°23' E 012°05'1325.9
2017-Jun-16 16:31N 65°11' E 011°52'1425.6
2017-Jun-16 15:57N 64°59' E 011°35'4 8.5
2017-Jun-16 15:29N 64°57' E 011°27'0 0.0
2017-Jun-16 14:59N 64°57' E 011°27'0 0.0
2017-Jun-16 14:30N 64°57' E 011°27'1 0.9
2017-Jun-16 13:29N 64°56' E 011°28'1 1.7
2017-Jun-16 12:58N 64°57' E 011°27'1 1.8
2017-Jun-16 12:29N 64°56' E 011°28'0 0.0
2017-Jun-16 11:58N 64°56' E 011°28'0 0.0
2017-Jun-16 11:28N 64°56' E 011°28'0 0.4
2017-Jun-16 10:59N 64°56' E 011°28'0 0.4
2017-Jun-16 10:28N 64°56' E 011°28'0 0.0
2017-Jun-16 09:58N 64°56' E 011°28'0 0.0
2017-Jun-16 09:25N 64°56' E 011°28'0 0.0
2017-Jun-16 08:58N 64°56' E 011°28'0 0.0
2017-Jun-16 08:28N 64°56' E 011°28'  
Track history (hours):
 
Tides and Currents Weather Stations Pressure Air Temp Water Temp Dewpoint Dewpoint Depression Visibility Wind Speed Wind Dir Waves Ship Positions

Lovundjenta

Last reported at 2017-Jun-26 08:22 UTC. Time now 2017-Jul-28 10:49 UTC.
Position N 66°05' E 012°36'.
Warning: this ship's position is 32 days out of date.

Length 15 m.

MMSI: 257788900.

Date/timePositionNaut miles runAvg speedWind from/ knotsBaromVisibWave heightAir tempDewpointWater temp
2017-Jun-26 08:22N 66°05' E 012°36'0 0.0
2017-Jun-26 07:58N 66°05' E 012°36'0 0.0
2017-Jun-26 07:25N 66°05' E 012°36'0 0.0
2017-Jun-26 06:58N 66°05' E 012°36'0 0.0
2017-Jun-26 06:28N 66°05' E 012°36'0 0.0
2017-Jun-26 05:58N 66°05' E 012°36'0 0.0
2017-Jun-26 05:28N 66°05' E 012°36'3 7.5
2017-Jun-26 05:00N 66°02' E 012°38'0 0.2
2017-Jun-26 04:15N 66°02' E 012°38'413.2
2017-Jun-26 03:59N 66°05' E 012°35'3 4.4
2017-Jun-26 03:14N 66°02' E 012°38'313.2
2017-Jun-26 02:59N 66°05' E 012°35'4 0.1
2017-Jun-24 22:46N 66°01' E 012°38'0 0.0
2017-Jun-23 22:21N 66°01' E 012°38'822.9
2017-Jun-23 21:59N 66°08' E 012°51'6 5.4
2017-Jun-23 20:58N 66°12' E 013°00'1122.5
2017-Jun-23 20:29N 66°05' E 012°41'3 0.3
2017-Jun-23 10:22N 66°01' E 012°38'822.6
2017-Jun-23 10:00N 66°09' E 012°48'1223.5
2017-Jun-23 09:29N 66°20' E 012°58'713.6
2017-Jun-23 08:59N 66°23' E 012°43'917.7
2017-Jun-23 08:30N 66°22' E 012°21'0 0.8
2017-Jun-23 07:58N 66°22' E 012°22'0 0.0
2017-Jun-23 07:28N 66°22' E 012°22'0 0.0
2017-Jun-23 06:58N 66°22' E 012°22'0 0.0
2017-Jun-23 06:28N 66°22' E 012°22'0 0.0
2017-Jun-23 05:58N 66°22' E 012°22'0 0.0
2017-Jun-23 05:28N 66°22' E 012°22'0 0.0
2017-Jun-23 04:58N 66°22' E 012°22'0 0.0
2017-Jun-23 04:28N 66°22' E 012°22'0 0.0
2017-Jun-23 03:58N 66°22' E 012°22'0 0.0
2017-Jun-23 03:28N 66°22' E 012°22'0 0.0
2017-Jun-23 02:58N 66°22' E 012°22'0 0.0
2017-Jun-23 02:28N 66°22' E 012°22'0 0.0
2017-Jun-23 01:55N 66°22' E 012°22'0 0.0
2017-Jun-23 01:25N 66°22' E 012°22'0 0.0
2017-Jun-23 00:58N 66°22' E 012°22'0 0.0
2017-Jun-23 00:28N 66°22' E 012°22'0 0.0
2017-Jun-22 23:58N 66°22' E 012°22'0 0.0
2017-Jun-22 23:28N 66°22' E 012°22'0 0.0
2017-Jun-22 22:58N 66°22' E 012°22'0 0.0
2017-Jun-22 22:28N 66°22' E 012°22'0 0.0
2017-Jun-22 21:58N 66°22' E 012°22'0 0.0
2017-Jun-22 21:28N 66°22' E 012°22'0 0.0
2017-Jun-22 20:58N 66°22' E 012°22'0 0.0
2017-Jun-22 20:28N 66°22' E 012°22'0 0.0
2017-Jun-22 19:58N 66°22' E 012°22'0 0.0
2017-Jun-22 19:28N 66°22' E 012°22'0 0.0
2017-Jun-22 18:58N 66°22' E 012°22'0 0.0
2017-Jun-22 18:28N 66°22' E 012°22'0 0.0
2017-Jun-22 17:55N 66°22' E 012°22'0 0.0
2017-Jun-22 17:28N 66°22' E 012°22'0 0.0
2017-Jun-22 16:58N 66°22' E 012°22'0 0.0
2017-Jun-22 16:28N 66°22' E 012°22'0 0.0
2017-Jun-22 15:55N 66°22' E 012°22'0 0.0
2017-Jun-22 15:28N 66°22' E 012°22'0 0.0
2017-Jun-22 14:58N 66°22' E 012°22'0 0.0
2017-Jun-22 14:28N 66°22' E 012°22'0 0.0
2017-Jun-22 13:25N 66°22' E 012°22'0 0.0
2017-Jun-22 12:58N 66°22' E 012°22'0 0.0
2017-Jun-22 12:28N 66°22' E 012°22'0 0.0
2017-Jun-22 11:58N 66°22' E 012°22'0 0.0
2017-Jun-22 11:28N 66°22' E 012°22'0 0.0
2017-Jun-22 10:58N 66°22' E 012°22'0 0.0
2017-Jun-22 10:28N 66°22' E 012°22'0 0.0
2017-Jun-22 09:58N 66°22' E 012°22'0 0.0
2017-Jun-22 09:28N 66°22' E 012°22'0 0.0
2017-Jun-22 08:58N 66°22' E 012°22'0 0.0
2017-Jun-22 08:25N 66°22' E 012°22'0 0.0
2017-Jun-22 07:58N 66°22' E 012°22'0 0.0
2017-Jun-22 07:28N 66°22' E 012°22'0 0.0
2017-Jun-22 06:58N 66°22' E 012°22'0 0.0
2017-Jun-22 06:28N 66°22' E 012°22'0 0.0
2017-Jun-22 05:58N 66°22' E 012°22'0 0.0
2017-Jun-22 05:28N 66°22' E 012°22'0 0.0
2017-Jun-22 04:58N 66°22' E 012°22'0 0.0
2017-Jun-22 04:28N 66°22' E 012°22'0 0.0
2017-Jun-22 03:58N 66°22' E 012°22'0 0.0
2017-Jun-22 03:28N 66°22' E 012°22'0 0.0
2017-Jun-22 02:58N 66°22' E 012°22'0 0.0
2017-Jun-22 02:28N 66°22' E 012°22'0 0.0
2017-Jun-22 01:58N 66°22' E 012°22'0 0.0
2017-Jun-22 01:28N 66°22' E 012°22'0 0.0
2017-Jun-22 00:58N 66°22' E 012°22'0 0.0
2017-Jun-22 00:28N 66°22' E 012°22'0 0.0
2017-Jun-21 23:58N 66°22' E 012°22'0 0.0
2017-Jun-21 23:28N 66°22' E 012°22'0 0.0
2017-Jun-21 22:58N 66°22' E 012°22'0 0.0
2017-Jun-21 22:28N 66°22' E 012°22'0 0.0
2017-Jun-21 21:58N 66°22' E 012°22'0 0.0
2017-Jun-21 21:28N 66°22' E 012°22'0 0.0
2017-Jun-21 20:58N 66°22' E 012°22'0 0.0
2017-Jun-21 20:28N 66°22' E 012°22'0 0.0
2017-Jun-21 19:58N 66°22' E 012°22'0 0.0
2017-Jun-21 19:29N 66°22' E 012°22'1020.1
2017-Jun-21 18:59N 66°14' E 012°36'7 0.7
2017-Jun-21 08:57N 66°07' E 012°40'1423.2
2017-Jun-21 08:22N 66°19' E 012°26'3 8.6
2017-Jun-21 07:58N 66°22' E 012°22'0 0.0
2017-Jun-21 07:28N 66°22' E 012°22'0 0.0
2017-Jun-21 06:46N 66°22' E 012°22'0 0.0
2017-Jun-21 06:16N 66°22' E 012°22'0 0.0
2017-Jun-21 03:10N 66°22' E 012°22'0 0.0
2017-Jun-21 02:52N 66°22' E 012°22'0 0.0
2017-Jun-21 02:28N 66°22' E 012°22'0 0.0
2017-Jun-21 01:22N 66°22' E 012°22'0 0.0
2017-Jun-21 00:58N 66°22' E 012°22'0 0.0
2017-Jun-21 00:22N 66°22' E 012°22'0 0.0
2017-Jun-20 20:52N 66°22' E 012°22'0 0.0
2017-Jun-20 20:16N 66°22' E 012°22'0 0.0
2017-Jun-20 19:28N 66°22' E 012°22'0 0.0
2017-Jun-20 18:52N 66°22' E 012°22'0 0.0
2017-Jun-20 18:22N 66°22' E 012°22'0 0.0
2017-Jun-20 17:34N 66°22' E 012°22'0 0.0
2017-Jun-20 17:16N 66°22' E 012°22'0 0.0
2017-Jun-20 15:58N 66°22' E 012°22'0 0.0
2017-Jun-20 14:46N 66°22' E 012°22'0 0.0
2017-Jun-20 13:46N 66°22' E 012°22'0 0.0
2017-Jun-20 13:18N 66°22' E 012°22'1712.0
2017-Jun-20 11:52N 66°09' E 012°48'1615.1
2017-Jun-20 10:50N 66°22' E 012°27'2 3.4
2017-Jun-20 10:18N 66°22' E 012°23'1 1.9
2017-Jun-20 09:59N 66°22' E 012°22'0 0.0
2017-Jun-20 09:11N 66°22' E 012°22'0 0.0
2017-Jun-20 08:59N 66°22' E 012°22'0 0.0
2017-Jun-20 08:29N 66°22' E 012°22'0 0.0
2017-Jun-20 07:41N 66°22' E 012°22'0 0.0
2017-Jun-20 07:26N 66°22' E 012°22'0 0.0
2017-Jun-20 06:58N 66°22' E 012°22'0 0.0
2017-Jun-20 06:29N 66°22' E 012°22'0 0.0
2017-Jun-20 05:59N 66°22' E 012°22'0 0.0
2017-Jun-20 05:17N 66°22' E 012°22'0 0.0
2017-Jun-20 04:59N 66°22' E 012°22'0 0.0
2017-Jun-20 04:29N 66°22' E 012°22'0 0.0
2017-Jun-20 03:59N 66°22' E 012°22'0 0.0
2017-Jun-20 03:17N 66°22' E 012°22'0 0.0
2017-Jun-20 02:58N 66°22' E 012°22'0 0.0
2017-Jun-20 02:29N 66°22' E 012°22'0 0.0
2017-Jun-20 01:47N 66°22' E 012°22'0 0.0
2017-Jun-20 01:29N 66°22' E 012°22'0 0.0
2017-Jun-20 00:59N 66°22' E 012°22'0 0.0
2017-Jun-20 00:23N 66°22' E 012°22'0 0.0
2017-Jun-19 23:53N 66°22' E 012°22'0 0.0
2017-Jun-19 23:29N 66°22' E 012°22'0 0.0
2017-Jun-19 22:47N 66°22' E 012°22'0 0.0
2017-Jun-19 22:05N 66°22' E 012°22'0 0.0
2017-Jun-19 21:46N 66°22' E 012°22'0 0.0
2017-Jun-19 21:29N 66°22' E 012°22'0 0.0
2017-Jun-19 20:53N 66°22' E 012°22'0 0.0
2017-Jun-19 20:23N 66°22' E 012°22'0 0.0
2017-Jun-19 19:59N 66°22' E 012°22'0 0.0
2017-Jun-19 18:47N 66°22' E 012°22'0 0.0
2017-Jun-19 18:29N 66°22' E 012°22'0 0.0
2017-Jun-19 17:47N 66°22' E 012°22'0 0.0
2017-Jun-19 17:11N 66°22' E 012°22'0 0.0
2017-Jun-19 16:59N 66°22' E 012°22'0 0.0
2017-Jun-19 16:29N 66°22' E 012°22'0 0.0
2017-Jun-19 15:52N 66°22' E 012°22'0 0.0
2017-Jun-19 15:23N 66°22' E 012°22'0 0.0
2017-Jun-19 14:41N 66°22' E 012°22'0 0.0
2017-Jun-19 14:22N 66°22' E 012°22'0 0.0
2017-Jun-19 13:29N 66°22' E 012°22'0 0.0
2017-Jun-19 12:50N 66°22' E 012°22'0 0.0
2017-Jun-19 12:29N 66°22' E 012°22'0 0.0
2017-Jun-19 11:59N 66°22' E 012°22'0 0.0
2017-Jun-19 11:29N 66°22' E 012°22'1 1.4
2017-Jun-19 11:01N 66°22' E 012°23'1120.8
2017-Jun-19 10:30N 66°24' E 012°49'510.0
2017-Jun-19 10:00N 66°21' E 012°60'918.1
2017-Jun-19 09:30N 66°23' E 012°38'712.7
2017-Jun-19 08:58N 66°22' E 012°22'0 0.0
2017-Jun-19 08:28N 66°22' E 012°22'0 0.0
2017-Jun-19 07:58N 66°22' E 012°22'0 0.0
2017-Jun-19 07:28N 66°22' E 012°22'0 0.0
2017-Jun-19 06:58N 66°22' E 012°22'0 0.0
2017-Jun-19 06:28N 66°22' E 012°22'0 0.0
2017-Jun-19 05:58N 66°22' E 012°22'0 0.0
2017-Jun-19 05:28N 66°22' E 012°22'0 0.0
2017-Jun-19 04:58N 66°22' E 012°22'0 0.0
2017-Jun-19 04:28N 66°22' E 012°22'0 0.0
2017-Jun-19 03:58N 66°22' E 012°22'0 0.0
2017-Jun-19 03:28N 66°22' E 012°22'0 0.0
2017-Jun-19 02:58N 66°22' E 012°22'0 0.0
2017-Jun-19 02:28N 66°22' E 012°22'0 0.0
2017-Jun-19 01:58N 66°22' E 012°22'0 0.0
2017-Jun-19 01:28N 66°22' E 012°22'0 0.0
2017-Jun-19 00:58N 66°22' E 012°22'0 0.0
2017-Jun-19 00:28N 66°22' E 012°22'0 0.0
2017-Jun-18 23:58N 66°22' E 012°22'0 0.0
2017-Jun-18 23:28N 66°22' E 012°22'0 0.0
2017-Jun-18 22:58N 66°22' E 012°22'0 0.0
2017-Jun-18 22:28N 66°22' E 012°22'0 0.0
2017-Jun-18 21:58N 66°22' E 012°22'0 0.0
2017-Jun-18 21:28N 66°22' E 012°22'0 0.0
2017-Jun-18 20:58N 66°22' E 012°22'0 0.0
2017-Jun-18 20:28N 66°22' E 012°22'0 0.0
2017-Jun-18 19:58N 66°22' E 012°22'0 0.0
2017-Jun-18 19:28N 66°22' E 012°22'0 0.0
2017-Jun-18 18:58N 66°22' E 012°22'0 0.0
2017-Jun-18 18:28N 66°22' E 012°22'0 0.0
2017-Jun-18 17:58N 66°22' E 012°22'0 0.0
2017-Jun-18 17:25N 66°22' E 012°22'0 0.0
2017-Jun-18 16:58N 66°22' E 012°22'0 0.0
2017-Jun-18 16:28N 66°22' E 012°22'0 0.0
2017-Jun-18 15:58N 66°22' E 012°22'0 0.0
2017-Jun-18 15:25N 66°22' E 012°22'0 0.0
2017-Jun-18 14:58N 66°22' E 012°22'0 0.0
2017-Jun-18 13:58N 66°22' E 012°22'0 0.0
2017-Jun-18 13:28N 66°22' E 012°22'0 0.0
2017-Jun-18 12:58N 66°22' E 012°22'0 0.0
2017-Jun-18 12:28N 66°22' E 012°22'0 0.0
2017-Jun-18 11:58N 66°22' E 012°22'0 0.0
2017-Jun-18 11:28N 66°22' E 012°22'0 0.0
2017-Jun-18 10:58N 66°22' E 012°22'0 0.0
2017-Jun-18 10:28N 66°22' E 012°22'0 0.0
2017-Jun-18 09:58N 66°22' E 012°22'0 0.0
2017-Jun-18 09:28N 66°22' E 012°22'0 0.0
2017-Jun-18 08:58N 66°22' E 012°22'0 0.0
2017-Jun-18 08:28N 66°22' E 012°22'0 0.0
2017-Jun-18 07:58N 66°22' E 012°22'0 0.0
2017-Jun-18 07:28N 66°22' E 012°22'0 0.0
2017-Jun-18 06:58N 66°22' E 012°22'0 0.0
2017-Jun-18 06:28N 66°22' E 012°22'0 0.0
2017-Jun-18 05:58N 66°22' E 012°22'0 0.0
2017-Jun-18 05:28N 66°22' E 012°22'0 0.0
2017-Jun-18 04:58N 66°22' E 012°22'0 0.0
2017-Jun-18 04:28N 66°22' E 012°22'0 0.0
2017-Jun-18 03:58N 66°22' E 012°22'0 0.0
2017-Jun-18 03:28N 66°22' E 012°22'0 0.0
2017-Jun-18 02:58N 66°22' E 012°22'0 0.0
2017-Jun-18 02:28N 66°22' E 012°22'0 0.0
2017-Jun-18 01:58N 66°22' E 012°22'0 0.0
2017-Jun-18 01:28N 66°22' E 012°22'0 0.0
2017-Jun-18 00:58N 66°22' E 012°22'0 0.0
2017-Jun-18 00:28N 66°22' E 012°22'0 0.0
2017-Jun-17 23:58N 66°22' E 012°22'0 0.0
2017-Jun-17 23:28N 66°22' E 012°22'0 0.0
2017-Jun-17 22:58N 66°22' E 012°22'0 0.0
2017-Jun-17 22:25N 66°22' E 012°22'0 0.0
2017-Jun-17 21:58N 66°22' E 012°22'0 0.0
2017-Jun-17 21:28N 66°22' E 012°22'0 0.0
2017-Jun-17 20:58N 66°22' E 012°22'0 0.0
2017-Jun-17 20:28N 66°22' E 012°22'0 0.0
2017-Jun-17 19:58N 66°22' E 012°22'0 0.0
2017-Jun-17 19:28N 66°22' E 012°22'0 0.0
2017-Jun-17 18:58N 66°22' E 012°22'0 0.0
2017-Jun-17 18:28N 66°22' E 012°22'0 0.0
2017-Jun-17 17:55N 66°22' E 012°22'0 0.0
2017-Jun-17 17:28N 66°22' E 012°22'0 0.0
2017-Jun-17 16:58N 66°22' E 012°22'0 0.0
2017-Jun-17 16:28N 66°22' E 012°22'0 0.0
2017-Jun-17 15:58N 66°22' E 012°22'0 0.0
2017-Jun-17 15:28N 66°22' E 012°22'0 0.0
2017-Jun-17 14:58N 66°22' E 012°22'0 0.0
2017-Jun-17 13:58N 66°22' E 012°22'0 0.0
2017-Jun-17 13:28N 66°22' E 012°22'0 0.0
2017-Jun-17 12:58N 66°22' E 012°22'0 0.0
2017-Jun-17 12:28N 66°22' E 012°22'0 0.0
2017-Jun-17 11:58N 66°22' E 012°22'0 0.0
2017-Jun-17 11:28N 66°22' E 012°22'918.0
2017-Jun-17 10:59N 66°15' E 012°33'1225.4
2017-Jun-17 10:30N 66°03' E 012°39'613.0
2017-Jun-17 10:00N 66°01' E 012°24'6 1.0
2017-Jun-17 04:00N 66°01' E 012°38'0 0.0
2017-Jun-17 00:30N 66°01' E 012°38'0 0.0
2017-Jun-16 19:18N 66°01' E 012°38'1 4.5
2017-Jun-16 19:00N 66°01' E 012°35'1224.0
2017-Jun-16 18:30N 65°50' E 012°21'1324.6
2017-Jun-16 17:59N 65°38' E 012°14'919.1
2017-Jun-16 17:31N 65°29' E 012°13'712.9
2017-Jun-16 17:00N 65°23' E 012°05'1325.9
2017-Jun-16 16:31N 65°11' E 011°52'1425.6
2017-Jun-16 15:57N 64°59' E 011°35'4 8.5
2017-Jun-16 15:29N 64°57' E 011°27'0 0.0
2017-Jun-16 14:59N 64°57' E 011°27'0 0.0
2017-Jun-16 14:30N 64°57' E 011°27'1 0.9
2017-Jun-16 13:29N 64°56' E 011°28'1 1.7
2017-Jun-16 12:58N 64°57' E 011°27'1 1.8
2017-Jun-16 12:29N 64°56' E 011°28'0 0.0
2017-Jun-16 11:58N 64°56' E 011°28'0 0.0
2017-Jun-16 11:28N 64°56' E 011°28'0 0.4
2017-Jun-16 10:59N 64°56' E 011°28'0 0.4
2017-Jun-16 10:28N 64°56' E 011°28'0 0.0
2017-Jun-16 09:58N 64°56' E 011°28'0 0.0
2017-Jun-16 09:25N 64°56' E 011°28'0 0.0
2017-Jun-16 08:58N 64°56' E 011°28'0 0.0
2017-Jun-16 08:28N 64°56' E 011°28'  

Dump ship's entire track history